Millstone, Connecticut
Current Conditions -  °F | °C
As of 9:15 AM on Saturday 20 Dec 2014 (Local Time) from KGON Reporting Station
Haze Haze  
Wind Chill: 21°   Ceiling: 2700
Heat Index: 29°   Visibility: 6mi
Dew Point: 22°   Wind: 8mph
Humidity: 75%   Direction: 360°N
Pressure: 30.27"   Gusts: NA
Location:  41.3583°N, 72.1558°W
Report Text: KGON 201415Z 36007KT 6SM HZ BKN027 OVC032 M02/M06 A3027 RMK AO2 T10171056
Loading
Personal Weather Stations






























Interactive Weather Map New forecast layout! Learn more

10-Day Weather Forecast

Advertisements
Track Severe Weather on mobile